createdAt,value
2023-03-04T00:00:25.074Z,14.40
2023-03-04T00:01:25.113Z,14.90
2023-03-04T00:02:25.107Z,15.00
2023-03-04T00:03:25.043Z,15.10
2023-03-04T00:04:25.042Z,15.40
2023-03-04T00:05:25.021Z,15.00
2023-03-04T00:06:25.012Z,15.30
2023-03-04T00:07:24.997Z,15.70
2023-03-04T00:08:25.030Z,15.60
2023-03-04T00:09:24.957Z,14.80
2023-03-04T00:10:24.942Z,15.40
2023-03-04T00:11:24.936Z,15.10
2023-03-04T00:12:24.935Z,15.60
2023-03-04T00:13:24.912Z,16.20
2023-03-04T00:14:24.889Z,16.30
2023-03-04T00:15:24.882Z,16.00
2023-03-04T00:16:24.890Z,16.90
2023-03-04T00:17:24.872Z,16.50
2023-03-04T00:18:24.841Z,16.80
2023-03-04T00:19:24.873Z,17.10
2023-03-04T00:20:24.827Z,16.60
2023-03-04T00:21:24.827Z,15.90
2023-03-04T00:22:24.802Z,16.00
2023-03-04T00:23:24.808Z,16.90
2023-03-04T00:24:24.781Z,17.00
2023-03-04T00:25:24.765Z,16.70
2023-03-04T00:26:24.734Z,17.60
2023-03-04T00:27:24.748Z,17.30
2023-03-04T00:28:24.704Z,17.10
2023-03-04T00:29:24.717Z,17.80
2023-03-04T00:30:24.685Z,17.60
2023-03-04T00:31:24.708Z,17.80
2023-03-04T00:32:24.731Z,18.00
2023-03-04T00:33:24.707Z,17.90
2023-03-04T00:34:24.640Z,17.30
2023-03-04T00:35:24.669Z,17.80
2023-03-04T00:36:24.602Z,17.90
2023-03-04T00:37:24.614Z,19.10
2023-03-04T00:38:24.580Z,18.70
2023-03-04T00:39:24.581Z,18.60
2023-03-04T00:40:24.559Z,19.00
2023-03-04T00:41:24.550Z,18.30
2023-03-04T00:42:24.553Z,17.80
2023-03-04T00:43:24.516Z,18.60
2023-03-04T00:44:24.511Z,19.00
2023-03-04T00:45:24.510Z,18.90
2023-03-04T00:46:24.478Z,18.50
2023-03-04T00:47:24.499Z,19.40
2023-03-04T00:48:24.448Z,19.50
2023-03-04T00:49:24.444Z,19.30
2023-03-04T00:50:24.436Z,19.30
2023-03-04T00:51:24.418Z,20.00
2023-03-04T00:52:24.408Z,19.90
2023-03-04T00:53:24.388Z,19.70
2023-03-04T00:54:24.383Z,19.70
2023-03-04T00:55:24.357Z,20.30
2023-03-04T00:56:24.347Z,20.10
2023-03-04T00:57:24.357Z,20.10
2023-03-04T00:58:24.316Z,20.30
2023-03-04T00:59:24.317Z,20.40
2023-03-04T01:00:24.285Z,19.70
2023-03-04T01:01:24.400Z,20.90
2023-03-04T01:02:24.307Z,20.80
2023-03-04T01:03:24.269Z,21.30
2023-03-04T01:04:24.245Z,20.40
2023-03-04T01:05:24.260Z,21.00
2023-03-04T01:06:24.217Z,20.60
2023-03-04T01:07:24.237Z,21.00
2023-03-04T01:08:24.193Z,20.90
2023-03-04T01:09:24.172Z,20.90
2023-03-04T01:10:24.175Z,21.40
2023-03-04T01:11:24.162Z,21.50
2023-03-04T01:12:24.153Z,21.10
2023-03-04T01:13:24.131Z,21.90
2023-03-04T01:14:24.113Z,20.90
2023-03-04T01:15:24.150Z,21.00
2023-03-04T01:16:24.088Z,21.10
2023-03-04T01:17:24.084Z,20.90
2023-03-04T01:18:24.080Z,20.20
2023-03-04T01:19:24.050Z,21.30
2023-03-04T01:20:24.029Z,20.50
2023-03-04T01:21:24.034Z,21.10
2023-03-04T01:22:24.007Z,20.50
2023-03-04T01:23:24.011Z,20.00
2023-03-04T01:24:23.981Z,19.90
2023-03-04T01:25:23.973Z,20.70
2023-03-04T01:26:23.948Z,20.70
2023-03-04T01:27:23.948Z,20.50
2023-03-04T01:28:23.938Z,20.70
2023-03-04T01:29:23.920Z,19.70
2023-03-04T01:30:23.907Z,20.10
2023-03-04T01:31:23.902Z,19.80
2023-03-04T01:32:23.889Z,20.70
2023-03-04T01:33:23.919Z,20.40
2023-03-04T01:34:23.844Z,20.10
2023-03-04T01:35:23.850Z,19.60
2023-03-04T01:36:23.832Z,19.00
2023-03-04T01:37:23.827Z,20.10
2023-03-04T01:38:23.806Z,19.60
2023-03-04T01:39:23.798Z,20.20
2023-03-04T01:40:23.783Z,19.80
2023-03-04T01:41:23.777Z,19.10
2023-03-04T01:42:23.754Z,19.20
2023-03-04T01:43:23.760Z,19.40
2023-03-04T01:44:23.717Z,17.90
2023-03-04T01:45:23.713Z,18.20
2023-03-04T01:46:23.740Z,17.90
2023-03-04T01:47:23.748Z,18.20
2023-03-04T01:48:23.675Z,18.30
2023-03-04T01:49:23.658Z,18.20
2023-03-04T01:50:23.668Z,17.00
2023-03-04T01:51:23.638Z,17.90
2023-03-04T01:52:23.616Z,17.80
2023-03-04T01:53:23.630Z,17.60
2023-03-04T01:54:23.596Z,18.40
2023-03-04T01:55:23.588Z,18.70
2023-03-04T01:56:23.576Z,18.70
2023-03-04T01:57:23.564Z,17.60
2023-03-04T01:58:23.554Z,16.90
2023-03-04T01:59:23.565Z,16.90
2023-03-04T02:00:23.514Z,17.50
2023-03-04T02:01:23.536Z,16.90
2023-03-04T02:02:23.496Z,17.20
2023-03-04T02:03:23.495Z,17.80
2023-03-04T02:04:23.525Z,17.70
2023-03-04T02:05:23.455Z,18.20
2023-03-04T02:06:23.452Z,17.80
2023-03-04T02:07:23.437Z,18.00
2023-03-04T02:08:23.436Z,18.40
2023-03-04T02:09:23.408Z,18.40
2023-03-04T02:10:23.393Z,17.80
2023-03-04T02:11:23.371Z,17.60
2023-03-04T02:12:23.364Z,18.00
2023-03-04T02:13:23.359Z,18.10
2023-03-04T02:14:23.332Z,17.20
2023-03-04T02:15:23.325Z,17.80
2023-03-04T02:16:23.350Z,18.20
2023-03-04T02:17:23.301Z,18.60
2023-03-04T02:18:23.306Z,17.60
2023-03-04T02:19:23.292Z,18.80
2023-03-04T02:20:23.268Z,18.10
2023-03-04T02:21:23.254Z,18.30
2023-03-04T02:22:23.232Z,18.30
2023-03-04T02:23:23.245Z,16.30
2023-03-04T02:24:23.214Z,18.10
2023-03-04T02:25:23.215Z,18.60
2023-03-04T02:26:23.182Z,18.90
2023-03-04T02:27:23.210Z,18.80
2023-03-04T02:28:23.176Z,18.20
2023-03-04T02:29:23.148Z,18.30
2023-03-04T02:30:23.140Z,19.00
2023-03-04T02:31:23.305Z,18.40
2023-03-04T02:32:23.145Z,18.10
2023-03-04T02:33:23.115Z,17.90
2023-03-04T02:34:23.088Z,18.50
2023-03-04T02:35:23.092Z,18.50
2023-03-04T02:36:23.062Z,19.20
2023-03-04T02:37:23.045Z,18.40
2023-03-04T02:38:23.037Z,19.20
2023-03-04T02:39:23.022Z,18.80
2023-03-04T02:40:23.005Z,19.10
2023-03-04T02:41:22.995Z,19.60
2023-03-04T02:42:22.988Z,19.00
2023-03-04T02:43:22.976Z,19.30
2023-03-04T02:44:22.950Z,18.70
2023-03-04T02:45:22.948Z,19.80
2023-03-04T02:46:23.003Z,18.90
2023-03-04T02:47:22.918Z,19.70
2023-03-04T02:48:22.906Z,19.40
2023-03-04T02:49:22.887Z,19.90
2023-03-04T02:50:22.876Z,19.80
2023-03-04T02:51:22.860Z,19.50
2023-03-04T02:52:22.852Z,19.60
2023-03-04T02:53:22.870Z,20.00
2023-03-04T02:54:22.836Z,20.00
2023-03-04T02:55:22.828Z,19.40
2023-03-04T02:56:22.799Z,19.70
2023-03-04T02:57:22.784Z,19.70
2023-03-04T02:58:22.799Z,19.30
2023-03-04T02:59:22.775Z,19.80
2023-03-04T03:00:22.744Z,20.00
2023-03-04T03:01:22.796Z,19.20
2023-03-04T03:02:22.732Z,19.40
2023-03-04T03:03:22.724Z,19.30
2023-03-04T03:04:22.717Z,20.00
2023-03-04T03:05:22.689Z,20.20
2023-03-04T03:06:22.672Z,19.70
2023-03-04T03:07:22.657Z,19.60
2023-03-04T03:08:22.658Z,19.90
2023-03-04T03:09:22.651Z,20.10
2023-03-04T03:10:22.629Z,19.90
2023-03-04T03:11:22.608Z,19.80
2023-03-04T03:12:22.607Z,20.30
2023-03-04T03:13:22.582Z,19.10
2023-03-04T03:14:22.579Z,19.70
2023-03-04T03:15:22.552Z,18.70
2023-03-04T03:16:22.583Z,19.90
2023-03-04T03:17:22.532Z,20.40
2023-03-04T03:18:22.511Z,19.50
2023-03-04T03:19:22.500Z,20.00
2023-03-04T03:20:22.499Z,20.40
2023-03-04T03:21:22.468Z,19.70
2023-03-04T03:22:22.472Z,20.00
2023-03-04T03:23:22.451Z,20.10
2023-03-04T03:24:22.447Z,20.20
2023-03-04T03:25:22.416Z,20.50
2023-03-04T03:26:22.414Z,20.80
2023-03-04T03:27:22.400Z,20.60
2023-03-04T03:28:22.398Z,20.70
2023-03-04T03:29:22.376Z,20.10
2023-03-04T03:30:22.358Z,20.60
2023-03-04T03:31:22.354Z,19.50
2023-03-04T03:32:22.448Z,19.30
2023-03-04T03:33:22.312Z,21.00
2023-03-04T03:34:22.313Z,21.30
2023-03-04T03:35:22.338Z,20.10
2023-03-04T03:36:22.352Z,20.40
2023-03-04T03:37:22.253Z,21.00
2023-03-04T03:38:22.256Z,20.60
2023-03-04T03:39:22.251Z,20.50
2023-03-04T03:40:22.220Z,19.70
2023-03-04T03:41:22.212Z,20.30
2023-03-04T03:42:22.211Z,19.40
2023-03-04T03:43:22.185Z,19.60
2023-03-04T03:44:22.185Z,19.90
2023-03-04T03:45:22.150Z,19.70
2023-03-04T03:46:22.160Z,20.00
2023-03-04T03:47:22.131Z,19.60
2023-03-04T03:48:22.142Z,19.30
2023-03-04T03:49:22.119Z,19.00
2023-03-04T03:50:22.097Z,19.30
2023-03-04T03:51:22.083Z,18.30
2023-03-04T03:52:22.082Z,18.90
2023-03-04T03:53:22.063Z,19.80
2023-03-04T03:54:22.058Z,19.40
2023-03-04T03:55:22.025Z,18.70
2023-03-04T03:56:22.029Z,19.00
2023-03-04T03:57:21.999Z,18.50
2023-03-04T03:58:21.997Z,19.20
2023-03-04T03:59:22.030Z,18.30
2023-03-04T04:00:21.972Z,18.80
2023-03-04T04:01:21.947Z,19.60
2023-03-04T04:02:22.054Z,18.20
2023-03-04T04:03:21.929Z,19.90
2023-03-04T04:04:21.957Z,19.20
2023-03-04T04:05:21.920Z,18.30
2023-03-04T04:06:21.899Z,17.80
2023-03-04T04:07:21.879Z,17.80
2023-03-04T04:08:21.881Z,18.40
2023-03-04T04:09:21.880Z,17.20
2023-03-04T04:10:21.837Z,17.00
2023-03-04T04:11:21.828Z,18.70
2023-03-04T04:12:21.817Z,19.40
2023-03-04T04:13:21.818Z,19.30
2023-03-04T04:14:21.836Z,20.10
2023-03-04T04:15:21.775Z,17.90
2023-03-04T04:16:21.794Z,20.00
2023-03-04T04:17:21.744Z,20.50
2023-03-04T04:18:21.742Z,20.30
2023-03-04T04:19:21.749Z,18.20
2023-03-04T04:20:21.735Z,19.70
2023-03-04T04:21:21.696Z,20.10
2023-03-04T04:22:21.695Z,19.70
2023-03-04T04:23:21.674Z,18.70
2023-03-04T04:24:21.675Z,20.10
2023-03-04T04:25:21.668Z,19.30
2023-03-04T04:26:21.657Z,20.50
2023-03-04T04:27:21.622Z,19.60
2023-03-04T04:28:21.621Z,20.10
2023-03-04T04:29:21.614Z,20.30
2023-03-04T04:30:21.597Z,20.30
2023-03-04T04:31:21.597Z,18.70
2023-03-04T04:32:21.614Z,18.70
2023-03-04T04:33:21.544Z,19.90
2023-03-04T04:34:21.546Z,20.00
2023-03-04T04:35:21.618Z,20.20
2023-03-04T04:36:21.508Z,19.90
2023-03-04T04:37:21.487Z,19.90
2023-03-04T04:38:21.500Z,20.30
2023-03-04T04:39:21.484Z,19.40
2023-03-04T04:40:21.459Z,20.20
2023-03-04T04:41:21.461Z,19.90
2023-03-04T04:42:21.444Z,20.80
2023-03-04T04:43:21.436Z,20.00
2023-03-04T04:44:21.418Z,19.70
2023-03-04T04:45:21.393Z,20.20
2023-03-04T04:46:21.455Z,20.80
2023-03-04T04:47:21.370Z,20.40
2023-03-04T04:48:21.351Z,21.50
2023-03-04T04:49:21.343Z,21.80
2023-03-04T04:50:21.323Z,21.40
2023-03-04T04:51:21.325Z,21.20
2023-03-04T04:52:21.303Z,20.90
2023-03-04T04:53:21.284Z,20.90
2023-03-04T04:54:21.290Z,20.80
2023-03-04T04:55:21.260Z,21.40
2023-03-04T04:56:21.252Z,21.00
2023-03-04T04:57:21.240Z,20.40
2023-03-04T04:58:21.230Z,20.10
2023-03-04T04:59:21.236Z,20.00
2023-03-04T05:00:21.199Z,19.50
2023-03-04T05:01:21.253Z,19.80
2023-03-04T05:02:21.172Z,19.90
2023-03-04T05:03:23.433Z,20.70
2023-03-04T05:04:21.173Z,21.20
2023-03-04T05:05:21.132Z,20.10
2023-03-04T05:06:21.122Z,20.10
2023-03-04T05:07:21.119Z,19.90
2023-03-04T05:08:21.105Z,20.20
2023-03-04T05:09:21.104Z,20.70
2023-03-04T05:10:21.074Z,20.70
2023-03-04T05:11:21.069Z,21.70
2023-03-04T05:12:21.050Z,21.30
2023-03-04T05:13:21.035Z,20.30
2023-03-04T05:14:21.041Z,21.70
2023-03-04T05:15:21.013Z,21.80
2023-03-04T05:16:21.005Z,21.40
2023-03-04T05:17:20.988Z,21.40
2023-03-04T05:18:20.983Z,21.70
2023-03-04T05:19:20.978Z,21.40
2023-03-04T05:20:20.956Z,21.00
2023-03-04T05:21:20.934Z,21.50
2023-03-04T05:22:20.938Z,21.50
2023-03-04T05:23:21.068Z,21.50
2023-03-04T05:24:20.925Z,21.90
2023-03-04T05:25:20.890Z,21.20
2023-03-04T05:26:20.886Z,21.50
2023-03-04T05:27:20.876Z,20.50
2023-03-04T05:28:20.862Z,21.60
2023-03-04T05:29:20.841Z,20.60
2023-03-04T05:30:20.843Z,20.80
2023-03-04T05:31:20.886Z,20.20
2023-03-04T05:32:20.826Z,21.60
2023-03-04T05:33:20.790Z,21.20
2023-03-04T05:34:20.780Z,20.50
2023-03-04T05:35:20.773Z,20.30
2023-03-04T05:36:20.752Z,20.10
2023-03-04T05:37:20.730Z,20.80
2023-03-04T05:38:20.742Z,20.40
2023-03-04T05:39:20.719Z,21.20
2023-03-04T05:40:20.709Z,20.90
2023-03-04T05:41:20.698Z,20.80
2023-03-04T05:42:20.691Z,20.40
2023-03-04T05:43:20.666Z,21.00
2023-03-04T05:44:20.662Z,19.50
2023-03-04T05:45:20.633Z,20.60
2023-03-04T05:46:20.659Z,19.60
2023-03-04T05:47:20.602Z,19.90
2023-03-04T05:48:20.609Z,19.20
2023-03-04T05:49:20.588Z,19.40
2023-03-04T05:50:20.584Z,19.10
2023-03-04T05:51:20.563Z,19.00
2023-03-04T05:52:20.559Z,18.70
2023-03-04T05:53:20.538Z,19.30
2023-03-04T05:54:20.529Z,19.00
2023-03-04T05:55:20.504Z,18.00
2023-03-04T05:56:20.488Z,18.00
2023-03-04T05:57:20.478Z,19.50
2023-03-04T05:58:20.487Z,18.70
2023-03-04T05:59:20.538Z,18.50
2023-03-04T06:00:20.453Z,18.20
2023-03-04T06:01:20.443Z,19.00
2023-03-04T06:02:20.459Z,19.10
2023-03-04T06:03:20.406Z,18.10
2023-03-04T06:04:20.408Z,18.60
2023-03-04T06:05:20.389Z,18.10
2023-03-04T06:06:20.372Z,18.50
2023-03-04T06:07:20.357Z,17.70
2023-03-04T06:08:20.345Z,17.60
2023-03-04T06:09:20.334Z,18.50
2023-03-04T06:10:20.316Z,17.30
2023-03-04T06:11:20.304Z,17.10
2023-03-04T06:12:20.292Z,17.60
2023-03-04T06:13:20.273Z,16.60
2023-03-04T06:14:20.299Z,17.20
2023-03-04T06:15:20.249Z,17.00
2023-03-04T06:16:20.272Z,16.20
2023-03-04T06:17:20.216Z,16.50
2023-03-04T06:18:20.221Z,16.50
2023-03-04T06:19:20.217Z,16.20
2023-03-04T06:20:20.222Z,17.30
2023-03-04T06:21:20.163Z,15.90
2023-03-04T06:22:20.169Z,16.70
2023-03-04T06:23:20.230Z,16.00
2023-03-04T06:24:20.156Z,16.00
2023-03-04T06:25:20.121Z,15.70
2023-03-04T06:26:20.121Z,16.30
2023-03-04T06:27:20.098Z,15.50
2023-03-04T06:28:20.113Z,15.50
2023-03-04T06:29:20.099Z,15.80
2023-03-04T06:30:20.073Z,15.90
2023-03-04T06:31:20.123Z,15.70
2023-03-04T06:32:20.120Z,16.10
2023-03-04T06:33:20.046Z,15.50
2023-03-04T06:34:20.030Z,15.70
2023-03-04T06:35:20.026Z,15.00
2023-03-04T06:36:19.977Z,15.30
2023-03-04T06:37:19.966Z,14.90
2023-03-04T06:38:19.957Z,14.40
2023-03-04T06:39:19.947Z,14.90
2023-03-04T06:40:19.935Z,15.10
2023-03-04T06:41:19.923Z,14.70
2023-03-04T06:42:19.906Z,14.70
2023-03-04T06:43:19.909Z,14.20
2023-03-04T06:44:19.889Z,14.70
2023-03-04T06:45:19.878Z,14.40
2023-03-04T06:46:19.881Z,14.00
2023-03-04T06:47:19.855Z,13.60
2023-03-04T06:48:19.929Z,14.60
2023-03-04T06:49:19.816Z,14.30
2023-03-04T06:50:19.804Z,14.20
2023-03-04T06:51:19.797Z,15.00
2023-03-04T06:52:19.780Z,13.90
2023-03-04T06:53:19.792Z,14.50
2023-03-04T06:54:19.747Z,13.60
2023-03-04T06:55:19.770Z,15.00
2023-03-04T06:56:19.732Z,13.80
2023-03-04T06:57:19.720Z,13.80
2023-03-04T06:58:19.713Z,13.50
2023-03-04T06:59:19.695Z,14.90
2023-03-04T07:00:19.685Z,13.90
2023-03-04T07:01:19.659Z,13.90
2023-03-04T07:02:19.652Z,14.90
2023-03-04T07:03:19.644Z,13.20
2023-03-04T07:04:19.649Z,14.00
2023-03-04T07:05:19.631Z,14.10
2023-03-04T07:06:19.600Z,13.40
2023-03-04T07:07:19.598Z,13.40
2023-03-04T07:08:21.737Z,13.60
2023-03-04T07:09:19.576Z,13.30
2023-03-04T07:10:19.568Z,13.30
2023-03-04T07:11:19.548Z,12.70
2023-03-04T07:12:19.518Z,13.20
2023-03-04T07:13:19.509Z,13.10
2023-03-04T07:14:19.504Z,12.90
2023-03-04T07:15:19.505Z,13.00
2023-03-04T07:16:19.496Z,12.80
2023-03-04T07:17:19.457Z,13.20
2023-03-04T07:18:19.437Z,12.30
2023-03-04T07:19:19.456Z,12.10
2023-03-04T07:20:19.425Z,12.40
2023-03-04T07:21:19.413Z,12.10
2023-03-04T07:22:19.393Z,12.70
2023-03-04T07:23:19.460Z,12.40
2023-03-04T07:24:19.373Z,12.10
2023-03-04T07:25:19.384Z,12.50
2023-03-04T07:26:19.336Z,12.10
2023-03-04T07:27:19.349Z,12.30
2023-03-04T07:28:19.316Z,12.40
2023-03-04T07:29:19.319Z,12.30
2023-03-04T07:30:19.353Z,12.50
2023-03-04T07:31:19.315Z,11.30
2023-03-04T07:32:19.415Z,11.80
2023-03-04T07:33:19.265Z,11.30
2023-03-04T07:34:19.265Z,11.90
2023-03-04T07:35:19.262Z,11.60
2023-03-04T07:36:19.227Z,11.80
2023-03-04T07:37:19.242Z,11.80
2023-03-04T07:38:19.204Z,12.00
2023-03-04T07:39:19.209Z,11.00
2023-03-04T07:40:19.172Z,11.30
2023-03-04T07:41:19.164Z,11.00
2023-03-04T07:42:19.146Z,11.10
2023-03-04T07:43:19.132Z,10.90
2023-03-04T07:44:19.137Z,10.60
2023-03-04T07:45:19.119Z,11.00
2023-03-04T07:46:19.180Z,11.00
2023-03-04T07:47:19.082Z,10.60
2023-03-04T07:48:19.074Z,10.60
2023-03-04T07:49:19.076Z,11.10
2023-03-04T07:50:19.059Z,10.90
2023-03-04T07:51:19.042Z,10.80
2023-03-04T07:52:19.054Z,10.90
2023-03-04T07:53:19.001Z,10.90
2023-03-04T07:54:18.999Z,10.90
2023-03-04T07:55:18.991Z,10.60
2023-03-04T07:56:18.995Z,10.50
2023-03-04T07:57:18.949Z,10.10
2023-03-04T07:58:18.941Z,10.50
2023-03-04T07:59:18.961Z,10.00
2023-03-04T08:00:18.930Z,10.10
2023-03-04T08:01:18.917Z,10.30
2023-03-04T08:02:18.935Z,9.90
2023-03-04T08:03:18.881Z,9.30
2023-03-04T08:04:18.888Z,10.40
2023-03-04T08:05:18.868Z,10.10
2023-03-04T08:06:18.936Z,9.80
2023-03-04T08:07:18.830Z,10.10
2023-03-04T08:08:18.824Z,10.00
2023-03-04T08:09:18.847Z,9.80
2023-03-04T08:10:18.808Z,9.60
2023-03-04T08:11:18.791Z,9.60
2023-03-04T08:12:18.767Z,9.80
2023-03-04T08:13:18.765Z,10.00
2023-03-04T08:14:18.742Z,9.70
2023-03-04T08:15:18.746Z,9.70
2023-03-04T08:16:18.753Z,9.50
2023-03-04T08:17:18.713Z,9.80
2023-03-04T08:18:18.686Z,9.10
2023-03-04T08:19:18.686Z,10.00
2023-03-04T08:20:18.673Z,9.20
2023-03-04T08:21:18.657Z,9.40
2023-03-04T08:22:18.633Z,9.30
2023-03-04T08:23:18.622Z,8.80
2023-03-04T08:24:18.602Z,8.80
2023-03-04T08:25:18.608Z,8.60
2023-03-04T08:26:18.585Z,8.90
2023-03-04T08:27:18.575Z,8.80
2023-03-04T08:28:18.564Z,8.30
2023-03-04T08:29:18.562Z,8.20
2023-03-04T08:30:18.554Z,8.80
2023-03-04T08:31:18.721Z,8.70
2023-03-04T08:32:18.665Z,8.50
2023-03-04T08:33:18.505Z,8.50
2023-03-04T08:34:18.481Z,8.00
2023-03-04T08:35:18.559Z,8.10
2023-03-04T08:36:18.454Z,8.20
2023-03-04T08:37:18.449Z,7.60
2023-03-04T08:38:18.554Z,7.60
2023-03-04T08:39:18.421Z,7.80
2023-03-04T08:40:18.420Z,7.30
2023-03-04T08:41:18.394Z,7.80
2023-03-04T08:42:22.252Z,6.80
2023-03-04T08:43:18.370Z,7.30
2023-03-04T08:44:18.378Z,7.00
2023-03-04T08:45:18.351Z,7.60
2023-03-04T08:46:18.519Z,7.70
2023-03-04T08:47:18.315Z,7.00
2023-03-04T08:48:18.287Z,6.90
2023-03-04T08:49:18.288Z,7.20
2023-03-04T08:50:19.118Z,6.80
2023-03-04T08:51:18.263Z,7.20
2023-03-04T08:52:18.237Z,7.00
2023-03-04T08:53:18.235Z,7.10
2023-03-04T08:54:18.224Z,6.70
2023-03-04T08:55:18.226Z,7.10
2023-03-04T08:56:18.195Z,6.80
2023-03-04T08:57:18.191Z,6.70
2023-03-04T08:58:18.172Z,6.90
2023-03-04T08:59:18.166Z,6.70
2023-03-04T09:00:18.150Z,6.80
2023-03-04T09:01:18.243Z,6.70
2023-03-04T09:02:18.104Z,6.30
2023-03-04T09:03:18.111Z,6.40
2023-03-04T09:04:18.098Z,6.50
2023-03-04T09:05:18.109Z,6.60
2023-03-04T09:06:18.077Z,6.30
2023-03-04T09:07:18.054Z,6.60
2023-03-04T09:08:18.029Z,6.70
2023-03-04T09:09:18.024Z,6.20
2023-03-04T09:10:18.016Z,6.10
2023-03-04T09:11:18.001Z,5.90
2023-03-04T09:12:17.972Z,6.20
2023-03-04T09:13:17.977Z,6.20
2023-03-04T09:14:17.958Z,6.30
2023-03-04T09:15:17.952Z,6.20
2023-03-04T09:16:17.952Z,5.80
2023-03-04T09:17:17.914Z,6.10
2023-03-04T09:18:17.903Z,6.30
2023-03-04T09:19:17.895Z,6.00
2023-03-04T09:20:17.883Z,6.10
2023-03-04T09:21:17.871Z,5.70
2023-03-04T09:22:17.840Z,5.60
2023-03-04T09:23:17.862Z,5.90
2023-03-04T09:24:17.820Z,5.60
2023-03-04T09:25:17.840Z,5.20
2023-03-04T09:26:17.790Z,5.40
2023-03-04T09:27:17.789Z,5.70
2023-03-04T09:28:17.788Z,5.90
2023-03-04T09:29:17.770Z,5.40
2023-03-04T09:30:17.769Z,5.20
2023-03-04T09:31:17.759Z,5.30
2023-03-04T09:32:17.791Z,5.40
2023-03-04T09:33:17.702Z,5.60
2023-03-04T09:34:17.715Z,6.90
2023-03-04T09:35:17.876Z,6.40
2023-03-04T09:36:17.691Z,5.50
2023-03-04T09:37:17.658Z,6.20
2023-03-04T09:38:17.630Z,5.10
2023-03-04T09:39:17.633Z,6.40
2023-03-04T09:40:17.629Z,4.70
2023-03-04T09:41:17.610Z,4.50
2023-03-04T09:42:17.579Z,4.30
2023-03-04T09:43:17.569Z,4.50
2023-03-04T09:44:17.569Z,4.70
2023-03-04T09:45:17.551Z,4.30
2023-03-04T09:46:17.596Z,4.20
2023-03-04T09:47:17.516Z,4.20
2023-03-04T09:48:17.511Z,4.30
2023-03-04T09:49:17.503Z,4.10
2023-03-04T09:50:17.494Z,4.60
2023-03-04T09:51:17.499Z,4.60
2023-03-04T09:52:17.540Z,3.70
2023-03-04T09:53:17.547Z,4.30
2023-03-04T09:54:17.437Z,4.20
2023-03-04T09:55:17.434Z,3.70
2023-03-04T09:56:17.414Z,3.80
2023-03-04T09:57:17.387Z,3.70
2023-03-04T09:58:17.374Z,3.70
2023-03-04T09:59:17.427Z,4.30
2023-03-04T10:00:17.361Z,3.60
2023-03-04T10:01:17.346Z,3.50
2023-03-04T10:02:17.313Z,3.80
2023-03-04T10:03:17.346Z,3.80
2023-03-04T10:04:17.390Z,3.90
2023-03-04T10:05:17.284Z,3.80
2023-03-04T10:06:17.283Z,4.10
2023-03-04T10:07:17.261Z,3.40
2023-03-04T10:08:17.253Z,3.00
2023-03-04T10:09:17.229Z,3.60
2023-03-04T10:10:17.284Z,3.30
2023-03-04T10:11:17.327Z,3.20
2023-03-04T10:12:17.200Z,3.20
2023-03-04T10:13:17.180Z,3.50
2023-03-04T10:14:17.169Z,3.50
2023-03-04T10:15:17.172Z,3.30
2023-03-04T10:16:17.204Z,3.70
2023-03-04T10:17:17.154Z,3.90
2023-03-04T10:18:18.889Z,3.40
2023-03-04T10:19:17.100Z,4.00
2023-03-04T10:20:17.157Z,3.60
2023-03-04T10:21:17.091Z,3.80
2023-03-04T10:22:17.059Z,3.40
2023-03-04T10:23:17.050Z,4.00
2023-03-04T10:24:17.070Z,3.50
2023-03-04T10:25:17.045Z,3.20
2023-03-04T10:26:17.039Z,3.80
2023-03-04T10:27:17.026Z,4.00
2023-03-04T10:28:17.100Z,3.70
2023-03-04T10:29:16.993Z,3.40
2023-03-04T10:30:17.040Z,3.20
2023-03-04T10:31:17.014Z,3.60
2023-03-04T10:32:16.977Z,3.90
2023-03-04T10:33:16.929Z,3.50
2023-03-04T10:34:16.899Z,3.80
2023-03-04T10:35:17.539Z,3.50
2023-03-04T10:36:16.875Z,3.40
2023-03-04T10:37:16.866Z,3.90
2023-03-04T10:38:16.850Z,3.20
2023-03-04T10:39:16.848Z,3.70
2023-03-04T10:40:16.814Z,3.50
2023-03-04T10:41:16.819Z,3.60
2023-03-04T10:42:16.898Z,3.30
2023-03-04T10:43:16.789Z,3.60
2023-03-04T10:44:16.768Z,3.80
2023-03-04T10:45:16.753Z,3.80
2023-03-04T10:46:16.750Z,3.60
2023-03-04T10:47:16.730Z,3.30
2023-03-04T10:48:16.718Z,3.60
2023-03-04T10:49:16.709Z,4.10
2023-03-04T10:50:16.683Z,3.80
2023-03-04T10:51:16.687Z,4.30
2023-03-04T10:52:16.654Z,20.30
2023-03-04T10:53:16.653Z,5.70
2023-03-04T10:54:16.637Z,7.00
2023-03-04T10:55:16.624Z,4.40
2023-03-04T10:56:16.614Z,3.80
2023-03-04T10:57:16.599Z,3.60
2023-03-04T10:58:16.576Z,3.90
2023-03-04T10:59:16.566Z,3.70
2023-03-04T11:00:16.555Z,3.70
2023-03-04T11:01:16.588Z,4.30
2023-03-04T11:02:16.523Z,3.90
2023-03-04T11:03:16.514Z,3.40
2023-03-04T11:04:16.534Z,3.40
2023-03-04T11:05:16.487Z,3.50
2023-03-04T11:06:16.490Z,3.60
2023-03-04T11:07:16.459Z,3.50
2023-03-04T11:08:16.454Z,3.50
2023-03-04T11:09:16.440Z,3.50
2023-03-04T11:10:16.430Z,3.30
2023-03-04T11:11:16.442Z,3.10
2023-03-04T11:12:16.404Z,3.80
2023-03-04T11:13:16.383Z,3.50
2023-03-04T11:14:16.368Z,3.20
2023-03-04T11:15:16.355Z,3.40
2023-03-04T11:16:16.415Z,3.40
2023-03-04T11:17:16.351Z,3.10
2023-03-04T11:18:16.330Z,3.30
2023-03-04T11:19:16.664Z,3.30
2023-03-04T11:20:16.284Z,3.10
2023-03-04T11:21:16.280Z,2.90
2023-03-04T11:22:16.292Z,2.80
2023-03-04T11:23:16.241Z,3.10
2023-03-04T11:24:28.316Z,3.10
2023-03-04T11:25:17.222Z,3.00
2023-03-04T11:26:16.216Z,2.70
2023-03-04T11:27:16.247Z,3.00
2023-03-04T11:28:16.192Z,3.10
2023-03-04T11:29:16.171Z,3.00
2023-03-04T11:30:16.161Z,3.00
2023-03-04T11:31:16.155Z,2.80
2023-03-04T11:32:16.245Z,2.90
2023-03-04T11:33:16.111Z,2.70
2023-03-04T11:34:16.107Z,2.80
2023-03-04T11:35:16.096Z,2.70
2023-03-04T11:36:16.096Z,2.70
2023-03-04T11:37:16.086Z,3.00
2023-03-04T11:38:16.076Z,2.90
2023-03-04T11:39:16.059Z,3.00
2023-03-04T11:40:16.045Z,2.90
2023-03-04T11:41:16.024Z,3.00
2023-03-04T11:42:16.042Z,2.90
2023-03-04T11:43:16.011Z,2.70
2023-03-04T11:44:16.006Z,3.40
2023-03-04T11:45:28.231Z,3.50
2023-03-04T11:46:17.033Z,4.00
2023-03-04T11:47:15.973Z,3.50
2023-03-04T11:48:15.958Z,2.90
2023-03-04T11:49:15.943Z,2.90
2023-03-04T11:50:15.949Z,3.00
2023-03-04T11:51:15.926Z,2.80
2023-03-04T11:52:15.934Z,2.80
2023-03-04T11:53:15.887Z,2.90
2023-03-04T11:54:15.877Z,2.30
2023-03-04T11:55:15.869Z,2.60
2023-03-04T11:56:15.847Z,2.30
2023-03-04T11:57:15.849Z,2.30
2023-03-04T11:58:15.848Z,2.60
2023-03-04T11:59:15.806Z,2.40
2023-03-04T12:00:15.812Z,2.60
2023-03-04T12:01:15.792Z,2.30
2023-03-04T12:02:16.315Z,2.50
2023-03-04T12:03:16.166Z,2.70
2023-03-04T12:04:16.401Z,2.50
2023-03-04T12:05:15.733Z,2.40
2023-03-04T12:06:16.220Z,2.40
2023-03-04T12:07:16.361Z,2.60
2023-03-04T12:08:16.239Z,2.50
2023-03-04T12:09:16.122Z,2.50
2023-03-04T12:10:16.121Z,2.40
2023-03-04T12:11:16.013Z,2.60
2023-03-04T12:12:16.181Z,2.50
2023-03-04T12:13:16.240Z,2.10
2023-03-04T12:14:16.476Z,2.20
2023-03-04T12:15:16.333Z,2.20
2023-03-04T12:16:16.101Z,2.40
2023-03-04T12:17:16.095Z,2.10
2023-03-04T12:18:16.102Z,1.80
2023-03-04T12:19:16.201Z,2.00
2023-03-04T12:20:15.557Z,2.30
2023-03-04T12:21:15.995Z,2.20
2023-03-04T12:22:15.530Z,2.50
2023-03-04T12:23:16.142Z,2.60
2023-03-04T12:24:15.902Z,2.30
2023-03-04T12:25:18.003Z,2.20
2023-03-04T12:26:15.944Z,2.40
2023-03-04T12:27:16.034Z,2.60
2023-03-04T12:28:16.121Z,2.20
2023-03-04T12:29:15.855Z,2.10
2023-03-04T12:30:16.097Z,2.30
2023-03-04T12:31:18.290Z,2.10
2023-03-04T12:32:15.973Z,2.10
2023-03-04T12:33:16.068Z,2.10
2023-03-04T12:34:15.363Z,2.20
2023-03-04T12:35:15.984Z,1.90
2023-03-04T12:36:15.935Z,1.90
2023-03-04T12:37:15.779Z,1.80
2023-03-04T12:38:15.305Z,1.80
2023-03-04T12:39:15.285Z,1.70
2023-03-04T12:40:15.293Z,1.70
2023-03-04T12:41:15.270Z,1.80
2023-03-04T12:42:15.265Z,1.50
2023-03-04T12:43:15.241Z,1.80
2023-03-04T12:44:15.854Z,1.80
2023-03-04T12:45:15.218Z,1.60
2023-03-04T12:46:15.288Z,1.50
2023-03-04T12:47:15.208Z,1.30
2023-03-04T12:48:15.181Z,1.40
2023-03-04T12:49:15.171Z,1.50
2023-03-04T12:50:15.159Z,1.60
2023-03-04T12:51:15.133Z,1.30
2023-03-04T12:52:15.144Z,1.40
2023-03-04T12:53:15.207Z,1.20
2023-03-04T12:54:15.112Z,1.50
2023-03-04T12:55:15.087Z,1.50
2023-03-04T12:56:15.074Z,1.30
2023-03-04T12:57:15.117Z,1.60
2023-03-04T12:58:15.052Z,1.30
2023-03-04T12:59:15.033Z,1.30
2023-03-04T13:00:15.156Z,1.40
2023-03-04T13:01:15.002Z,1.40
2023-03-04T13:02:15.077Z,1.30